createdAt,value
2019-06-01T00:00:11.813Z,5.40
2019-06-01T00:02:40.755Z,5.67
2019-06-01T00:05:09.910Z,5.20
2019-06-01T00:07:38.768Z,5.33
2019-06-01T00:10:08.133Z,5.37
2019-06-01T00:12:36.994Z,4.97
2019-06-01T00:15:06.698Z,4.83
2019-06-01T00:17:35.474Z,5.50
2019-06-01T00:20:05.561Z,5.60
2019-06-01T00:22:34.250Z,5.80
2019-06-01T00:25:02.930Z,5.57
2019-06-01T00:27:31.822Z,5.83
2019-06-01T00:30:00.477Z,5.90
2019-06-01T00:32:29.180Z,5.70
2019-06-01T00:34:57.898Z,6.33
2019-06-01T00:37:26.580Z,5.70
2019-06-01T00:39:55.257Z,5.60
2019-06-01T00:42:23.890Z,5.50
2019-06-01T00:44:52.805Z,5.63
2019-06-01T00:47:21.494Z,5.57
2019-06-01T00:49:51.108Z,5.47
2019-06-01T00:52:20.171Z,5.60
2019-06-01T00:54:49.511Z,5.30
2019-06-01T00:57:19.317Z,5.03
2019-06-01T00:59:49.974Z,4.90
2019-06-01T01:02:18.814Z,5.20
2019-06-01T01:04:50.328Z,5.70
2019-06-01T01:07:19.069Z,4.90
2019-06-01T01:09:48.807Z,5.20
2019-06-01T01:12:17.734Z,5.57
2019-06-01T01:14:47.220Z,6.03
2019-06-01T01:17:15.902Z,5.20
2019-06-01T01:19:45.637Z,5.53
2019-06-01T01:22:14.312Z,5.90
2019-06-01T01:24:43.050Z,5.60
2019-06-01T01:27:11.761Z,5.80
2019-06-01T01:29:40.450Z,5.80
2019-06-01T01:32:09.140Z,5.20
2019-06-01T01:34:39.423Z,5.70
2019-06-01T01:37:08.097Z,5.60
2019-06-01T01:39:36.709Z,5.20
2019-06-01T01:42:05.365Z,5.07
2019-06-01T01:44:34.030Z,5.50
2019-06-01T01:47:02.709Z,5.57
2019-06-01T01:49:31.457Z,5.17
2019-06-01T01:52:01.613Z,5.30
2019-06-01T01:54:30.723Z,5.70
2019-06-01T01:56:59.401Z,5.10
2019-06-01T01:59:28.085Z,5.17
2019-06-01T02:01:56.958Z,5.00
2019-06-01T02:04:25.642Z,5.23
2019-06-01T02:06:54.332Z,5.60
2019-06-01T02:09:23.101Z,5.80
2019-06-01T02:11:53.112Z,5.53
2019-06-01T02:14:22.499Z,5.83
2019-06-01T02:16:51.898Z,5.47
2019-06-01T02:19:20.634Z,4.93
2019-06-01T02:21:49.251Z,5.23
2019-06-01T02:24:17.962Z,5.20
2019-06-01T02:26:46.655Z,5.37
2019-06-01T02:29:15.330Z,5.40
2019-06-01T02:31:44.041Z,5.27
2019-06-01T02:34:13.522Z,4.90
2019-06-01T02:36:42.203Z,5.40
2019-06-01T02:39:12.775Z,4.83
2019-06-01T02:41:41.534Z,5.30
2019-06-01T02:44:10.227Z,6.13
2019-06-01T02:46:39.111Z,5.30
2019-06-01T02:49:07.798Z,5.37
2019-06-01T02:51:36.565Z,5.83
2019-06-01T02:54:06.736Z,5.83
2019-06-01T02:56:35.350Z,6.00
2019-06-01T02:59:04.429Z,5.63
2019-06-01T03:01:36.118Z,6.27
2019-06-01T03:04:08.095Z,5.50
2019-06-01T03:06:39.243Z,5.97
2019-06-01T03:09:09.140Z,5.70
2019-06-01T03:11:39.529Z,5.37
2019-06-01T03:14:10.278Z,5.87
2019-06-01T03:16:40.693Z,5.63
2019-06-01T03:19:09.747Z,5.83
2019-06-01T03:21:38.526Z,5.63
2019-06-01T03:24:10.236Z,6.00
2019-06-01T03:26:41.956Z,6.10
2019-06-01T03:29:18.879Z,5.83
2019-06-01T03:31:48.042Z,6.27
2019-06-01T03:34:16.846Z,5.70
2019-06-01T03:36:45.769Z,5.57
2019-06-01T03:39:14.524Z,5.40
2019-06-01T03:41:43.474Z,5.97
2019-06-01T03:44:13.009Z,5.60
2019-06-01T03:46:41.884Z,6.17
2019-06-01T03:49:11.857Z,6.10
2019-06-01T03:51:40.642Z,5.30
2019-06-01T03:54:10.087Z,5.40
2019-06-01T03:56:39.012Z,5.53
2019-06-01T03:59:07.703Z,5.93
2019-06-01T04:01:36.463Z,5.40
2019-06-01T04:04:05.545Z,5.43
2019-06-01T04:06:34.594Z,5.93
2019-06-01T04:09:05.622Z,5.50
2019-06-01T04:11:34.710Z,5.10
2019-06-01T04:14:05.599Z,5.37
2019-06-01T04:16:34.456Z,5.47
2019-06-01T04:19:03.771Z,5.50
2019-06-01T04:21:32.542Z,5.87
2019-06-01T04:24:01.850Z,5.37
2019-06-01T04:26:30.611Z,5.20
2019-06-01T04:28:59.331Z,5.53
2019-06-01T04:31:28.084Z,5.90
2019-06-01T04:33:56.777Z,5.30
2019-06-01T04:36:25.553Z,5.17
2019-06-01T04:38:54.306Z,5.93
2019-06-01T04:41:22.998Z,5.00
2019-06-01T04:43:51.698Z,5.90
2019-06-01T04:46:20.416Z,5.60
2019-06-01T04:48:49.097Z,5.83
2019-06-01T04:51:18.034Z,5.30
2019-06-01T04:53:46.718Z,5.43
2019-06-01T04:56:15.406Z,4.90
2019-06-01T04:58:44.103Z,5.30
2019-06-01T05:01:13.055Z,5.10
2019-06-01T05:03:41.771Z,5.17
2019-06-01T05:06:11.355Z,4.90
2019-06-01T05:08:40.088Z,6.33
2019-06-01T05:11:10.200Z,4.93
2019-06-01T05:13:39.208Z,5.13
2019-06-01T05:16:07.963Z,5.33
2019-06-01T05:18:36.649Z,4.97
2019-06-01T05:21:06.447Z,4.77
2019-06-01T05:23:35.205Z,5.20
2019-06-01T05:26:03.826Z,4.97
2019-06-01T05:28:32.537Z,4.80
2019-06-01T05:31:01.223Z,4.10
2019-06-01T05:33:37.376Z,5.00
2019-06-01T05:36:00.379Z,4.70
2019-06-01T05:38:29.064Z,4.03
2019-06-01T05:40:57.747Z,4.20
2019-06-01T05:43:26.462Z,4.40
2019-06-01T05:45:55.146Z,4.33
2019-06-01T05:48:28.432Z,4.07
2019-06-01T05:50:54.174Z,3.70
2019-06-01T05:53:23.140Z,3.90
2019-06-01T05:55:51.885Z,4.20
2019-06-01T05:58:21.747Z,4.70
2019-06-01T06:00:50.597Z,3.97
2019-06-01T06:03:22.293Z,4.30
2019-06-01T06:05:49.913Z,4.77
2019-06-01T06:08:18.522Z,5.00
2019-06-01T06:10:47.206Z,4.30
2019-06-01T06:13:15.909Z,4.80
2019-06-01T06:15:44.599Z,5.70
2019-06-01T06:18:13.671Z,5.80
2019-06-01T06:20:42.489Z,7.20
2019-06-01T06:23:12.161Z,7.53
2019-06-01T06:25:41.515Z,6.97
2019-06-01T06:28:10.946Z,6.87
2019-06-01T06:30:39.595Z,6.77
2019-06-01T06:33:08.279Z,6.77
2019-06-01T06:35:37.023Z,6.53
2019-06-01T06:38:05.707Z,6.00
2019-06-01T06:40:34.389Z,6.00
2019-06-01T06:43:03.031Z,5.50
2019-06-01T06:45:31.774Z,5.40
2019-06-01T06:48:01.074Z,5.10
2019-06-01T06:50:29.988Z,5.37
2019-06-01T06:52:58.598Z,5.17
2019-06-01T06:55:27.713Z,6.10
2019-06-01T06:57:56.801Z,4.60
2019-06-01T07:00:26.864Z,5.17
2019-06-01T07:02:56.043Z,5.20
2019-06-01T07:05:25.532Z,4.90
2019-06-01T07:07:54.862Z,4.97
2019-06-01T07:10:24.243Z,5.10
2019-06-01T07:12:53.120Z,4.90
2019-06-01T07:15:23.399Z,4.90
2019-06-01T07:17:52.582Z,4.73
2019-06-01T07:20:21.546Z,4.60
2019-06-01T07:22:50.203Z,4.57
2019-06-01T07:25:19.653Z,4.80
2019-06-01T07:27:48.403Z,4.50
2019-06-01T07:30:17.505Z,5.13
2019-06-01T07:32:46.431Z,5.10
2019-06-01T07:35:15.656Z,4.47
2019-06-01T07:37:44.346Z,4.50
2019-06-01T07:40:14.081Z,4.20
2019-06-01T07:42:43.374Z,4.33
2019-06-01T07:45:12.464Z,4.53
2019-06-01T07:47:41.463Z,4.63
2019-06-01T07:50:11.073Z,4.87
2019-06-01T07:52:39.764Z,4.17
2019-06-01T07:55:08.441Z,3.77
2019-06-01T07:57:37.214Z,3.53
2019-06-01T08:00:08.370Z,3.70
2019-06-01T08:02:36.978Z,3.93
2019-06-01T08:05:07.606Z,3.93
2019-06-01T08:07:36.279Z,3.67
2019-06-01T08:10:06.061Z,4.40
2019-06-01T08:12:34.961Z,3.90
2019-06-01T08:15:07.763Z,4.30
2019-06-01T08:17:36.446Z,4.20
2019-06-01T08:20:06.158Z,3.67
2019-06-01T08:22:34.837Z,3.63
2019-06-01T08:25:04.502Z,4.07
2019-06-01T08:27:33.220Z,3.70
2019-06-01T08:30:01.973Z,3.60
2019-06-01T08:32:30.983Z,3.77
2019-06-01T08:35:08.602Z,3.90
2019-06-01T08:37:31.359Z,3.70
2019-06-01T08:40:00.234Z,3.60
2019-06-01T08:42:29.543Z,3.73
2019-06-01T08:44:58.268Z,4.10
2019-06-01T08:47:27.822Z,3.50
2019-06-01T08:49:56.576Z,3.00
2019-06-01T08:52:25.980Z,2.93
2019-06-01T08:54:54.647Z,2.50
2019-06-01T08:57:24.171Z,2.70
2019-06-01T08:59:54.477Z,2.20
2019-06-01T09:02:24.436Z,2.30
2019-06-01T09:04:53.774Z,2.00
2019-06-01T09:07:22.473Z,1.80
2019-06-01T09:09:51.142Z,2.00
2019-06-01T09:12:21.194Z,2.37
2019-06-01T09:14:49.820Z,2.00
2019-06-01T09:17:18.975Z,1.70
2019-06-01T09:19:47.726Z,1.90
2019-06-01T09:22:16.670Z,1.60
2019-06-01T09:24:45.618Z,1.50
2019-06-01T09:27:14.321Z,1.90
2019-06-01T09:29:44.800Z,1.53
2019-06-01T09:32:13.275Z,1.60
2019-06-01T09:34:42.102Z,1.50
2019-06-01T09:37:10.790Z,1.87
2019-06-01T09:39:39.626Z,1.47
2019-06-01T09:42:08.340Z,1.83
2019-06-01T09:44:37.341Z,1.67
2019-06-01T09:47:06.276Z,1.60
2019-06-01T09:49:35.806Z,1.47
2019-06-01T09:52:04.674Z,1.60
2019-06-01T09:54:34.618Z,1.70
2019-06-01T09:57:03.816Z,1.50
2019-06-01T09:59:32.493Z,1.70
2019-06-01T10:02:01.179Z,1.70
2019-06-01T10:04:30.246Z,1.70
2019-06-01T10:06:58.862Z,1.37
2019-06-01T10:09:27.546Z,1.43
2019-06-01T10:11:56.286Z,1.97
2019-06-01T10:14:24.980Z,1.70
2019-06-01T10:16:53.673Z,1.60
2019-06-01T10:19:22.400Z,1.90
2019-06-01T10:21:51.091Z,1.60
2019-06-01T10:24:19.795Z,1.93
2019-06-01T10:26:48.519Z,1.70
2019-06-01T10:29:17.197Z,1.50
2019-06-01T10:31:45.877Z,1.70
2019-06-01T10:34:14.604Z,1.80
2019-06-01T10:36:43.290Z,1.70
2019-06-01T10:39:11.983Z,1.67
2019-06-01T10:41:41.564Z,1.50
2019-06-01T10:44:10.324Z,1.30
2019-06-01T10:46:40.145Z,1.40
2019-06-01T10:49:09.297Z,1.30
2019-06-01T10:51:38.373Z,1.20
2019-06-01T10:54:07.167Z,1.20
2019-06-01T10:56:36.298Z,1.40
2019-06-01T10:59:05.765Z,1.30
2019-06-01T11:01:35.927Z,1.30
2019-06-01T11:04:05.350Z,1.27
2019-06-01T11:06:40.863Z,1.30
2019-06-01T11:09:07.580Z,1.47
2019-06-01T11:11:36.908Z,1.20
2019-06-01T11:14:05.886Z,1.30
2019-06-01T11:16:35.200Z,1.50
2019-06-01T11:19:04.080Z,1.20
2019-06-01T11:21:33.525Z,1.30
2019-06-01T11:24:02.250Z,1.20
2019-06-01T11:26:30.973Z,1.10
2019-06-01T11:29:00.017Z,1.10
2019-06-01T11:31:28.685Z,0.90
2019-06-01T11:33:57.568Z,0.90
2019-06-01T11:36:26.247Z,0.90
2019-06-01T11:38:56.747Z,0.90
2019-06-01T11:41:25.462Z,1.00
2019-06-01T11:43:54.143Z,0.90
2019-06-01T11:46:22.812Z,1.00
2019-06-01T11:48:51.535Z,1.00
2019-06-01T11:51:20.216Z,1.00
2019-06-01T11:53:49.167Z,1.00
2019-06-01T11:56:18.252Z,1.00
2019-06-01T11:58:46.938Z,1.00
2019-06-01T12:01:15.876Z,1.00
2019-06-01T12:03:46.072Z,1.00
2019-06-01T12:06:15.162Z,1.10
2019-06-01T12:08:44.088Z,0.93
2019-06-01T12:11:12.863Z,1.10
2019-06-01T12:13:42.229Z,1.00
2019-06-01T12:16:11.030Z,0.93
2019-06-01T12:18:40.599Z,0.90
2019-06-01T12:21:09.433Z,0.90
2019-06-01T12:23:38.958Z,1.00
2019-06-01T12:26:07.840Z,0.97
2019-06-01T12:28:37.565Z,1.10
2019-06-01T12:31:06.308Z,0.97
2019-06-01T12:33:34.951Z,1.30
2019-06-01T12:36:04.253Z,0.90
2019-06-01T12:38:34.570Z,0.90
2019-06-01T12:41:03.486Z,1.20
2019-06-01T12:43:32.169Z,1.03
2019-06-01T12:46:07.362Z,1.00
2019-06-01T12:48:31.180Z,1.00
2019-06-01T12:51:00.320Z,0.90
2019-06-01T12:53:29.085Z,0.93
2019-06-01T12:55:57.794Z,0.87
2019-06-01T12:58:26.485Z,1.30
2019-06-01T13:00:55.174Z,0.90
2019-06-01T13:03:23.881Z,1.10
2019-06-01T13:05:52.570Z,1.07
2019-06-01T13:08:21.254Z,0.77
2019-06-01T13:10:50.027Z,0.80
2019-06-01T13:13:18.771Z,0.90
2019-06-01T13:15:47.799Z,0.73
2019-06-01T13:18:16.497Z,1.00
2019-06-01T13:20:45.412Z,1.00
2019-06-01T13:23:14.258Z,0.90
2019-06-01T13:25:43.577Z,1.00
2019-06-01T13:28:12.323Z,0.90
2019-06-01T13:30:42.355Z,1.10
2019-06-01T13:33:11.323Z,1.03
2019-06-01T13:35:40.123Z,0.90
2019-06-01T13:38:12.327Z,1.00
2019-06-01T13:40:39.238Z,1.13
2019-06-01T13:43:07.925Z,0.90
2019-06-01T13:45:36.530Z,1.10
2019-06-01T13:48:05.254Z,0.90
2019-06-01T13:50:33.874Z,1.00
2019-06-01T13:53:02.483Z,0.90
2019-06-01T13:55:31.214Z,0.73
2019-06-01T13:57:59.426Z,1.00
2019-06-01T14:00:30.710Z,0.80
2019-06-01T14:02:58.501Z,1.90
2019-06-01T14:05:27.263Z,1.60
2019-06-01T14:07:55.950Z,0.80
2019-06-01T14:10:24.769Z,1.10
2019-06-01T14:12:53.566Z,1.10
2019-06-01T14:15:22.254Z,0.80
2019-06-01T14:17:52.178Z,0.80
2019-06-01T14:20:21.097Z,1.10
2019-06-01T14:22:49.869Z,1.00
2019-06-01T14:25:19.011Z,0.90
2019-06-01T14:27:48.141Z,0.70
2019-06-01T14:30:17.426Z,0.80
2019-06-01T14:32:46.249Z,0.80
2019-06-01T14:35:14.926Z,0.90
2019-06-01T14:37:43.602Z,0.80
2019-06-01T14:40:12.482Z,1.10
2019-06-01T14:42:41.162Z,1.17
2019-06-01T14:45:10.850Z,0.90
2019-06-01T14:47:39.566Z,1.32
2019-06-01T14:50:08.950Z,1.20
2019-06-01T14:52:37.635Z,1.30
2019-06-01T14:55:07.921Z,1.02
2019-06-01T14:57:36.611Z,0.90
2019-06-01T15:00:09.930Z,1.20
2019-06-01T15:02:38.827Z,1.20
2019-06-01T15:05:08.509Z,1.00
2019-06-01T15:07:37.216Z,1.40
2019-06-01T15:10:09.654Z,0.90
2019-06-01T15:12:38.338Z,0.90
2019-06-01T15:15:10.262Z,0.82
2019-06-01T15:17:38.909Z,0.70
2019-06-01T15:20:09.163Z,0.85
2019-06-01T15:22:37.963Z,1.60
2019-06-01T15:25:10.531Z,0.85
2019-06-01T15:27:39.205Z,1.20
2019-06-01T15:30:09.999Z,0.93
2019-06-01T15:32:38.818Z,1.02
2019-06-01T15:35:08.398Z,1.00
2019-06-01T15:37:37.085Z,0.68
2019-06-01T15:40:11.959Z,1.25
2019-06-01T15:42:40.650Z,1.05
2019-06-01T15:45:10.156Z,1.40
2019-06-01T15:47:38.918Z,0.90
2019-06-01T15:50:09.202Z,0.80
2019-06-01T15:52:37.903Z,0.90
2019-06-01T15:55:08.163Z,0.70
2019-06-01T15:57:37.165Z,0.90
2019-06-01T16:00:08.118Z,1.80
2019-06-01T16:02:36.847Z,1.30
2019-06-01T16:05:08.555Z,1.10
2019-06-01T16:07:37.245Z,1.10
2019-06-01T16:10:08.421Z,1.20
2019-06-01T16:12:37.295Z,3.15
2019-06-01T16:15:09.883Z,1.60
2019-06-01T16:17:38.579Z,2.50
2019-06-01T16:20:10.346Z,1.20
2019-06-01T16:22:38.954Z,2.60
2019-06-01T16:25:09.342Z,2.20
2019-06-01T16:27:38.031Z,3.80
2019-06-01T16:30:08.074Z,1.80
2019-06-01T16:32:39.343Z,2.37
2019-06-01T16:35:07.748Z,2.43
2019-06-01T16:37:36.426Z,1.03
2019-06-01T16:40:09.911Z,1.30
2019-06-01T16:42:37.734Z,0.90
2019-06-01T16:45:10.726Z,1.00
2019-06-01T16:47:39.450Z,1.00
2019-06-01T16:50:08.959Z,0.97
2019-06-01T16:52:37.867Z,0.90
2019-06-01T16:55:08.456Z,1.00
2019-06-01T16:57:37.135Z,1.27
2019-06-01T17:00:07.847Z,1.43
2019-06-01T17:02:36.645Z,1.10
2019-06-01T17:05:07.110Z,1.00
2019-06-01T17:07:36.817Z,1.20
2019-06-01T17:10:22.669Z,1.10
2019-06-01T17:12:42.832Z,1.10
2019-06-01T17:15:09.049Z,1.10
2019-06-01T17:17:37.665Z,1.30
2019-06-01T17:20:15.107Z,1.10
2019-06-01T17:22:43.786Z,1.10
2019-06-01T17:25:12.999Z,2.30
2019-06-01T17:27:42.002Z,5.00
2019-06-01T17:30:12.135Z,2.00
2019-06-01T17:32:41.212Z,1.17
2019-06-01T17:35:09.915Z,1.37
2019-06-01T17:37:38.593Z,1.07
2019-06-01T17:40:08.416Z,2.40
2019-06-01T17:42:37.189Z,2.20
2019-06-01T17:45:07.917Z,1.23
2019-06-01T17:47:40.816Z,1.20
2019-06-01T17:50:09.582Z,1.20
2019-06-01T17:52:38.530Z,1.30
2019-06-01T17:55:07.224Z,1.50
2019-06-01T17:57:35.933Z,1.20
2019-06-01T18:00:07.715Z,1.17
2019-06-01T18:02:36.518Z,1.20
2019-06-01T18:05:06.568Z,1.20
2019-06-01T18:07:35.256Z,1.37
2019-06-01T18:10:06.542Z,1.20
2019-06-01T18:12:35.463Z,0.97
2019-06-01T18:15:08.285Z,1.20
2019-06-01T18:17:37.158Z,1.10
2019-06-01T18:20:09.315Z,1.30
2019-06-01T18:22:37.922Z,1.20
2019-06-01T18:25:12.557Z,1.30
2019-06-01T18:27:41.299Z,1.10
2019-06-01T18:30:11.403Z,1.50
2019-06-01T18:32:40.103Z,1.20
2019-06-01T18:35:09.366Z,1.30
2019-06-01T18:37:38.090Z,1.20
2019-06-01T18:40:09.860Z,1.00
2019-06-01T18:42:38.768Z,1.50
2019-06-01T18:45:09.690Z,1.50
2019-06-01T18:47:38.627Z,2.30
2019-06-01T18:50:10.039Z,2.80
2019-06-01T18:52:39.718Z,2.40
2019-06-01T18:55:08.700Z,1.93
2019-06-01T18:57:40.919Z,1.90
2019-06-01T19:00:15.295Z,1.70
2019-06-01T19:02:43.234Z,1.40
2019-06-01T19:05:13.307Z,1.40
2019-06-01T19:07:42.035Z,1.30
2019-06-01T19:10:12.564Z,1.30
2019-06-01T19:12:41.979Z,1.30
2019-06-01T19:15:25.312Z,1.20
2019-06-01T19:17:41.515Z,1.27
2019-06-01T19:20:11.132Z,1.20
2019-06-01T19:22:39.938Z,1.20
2019-06-01T19:25:09.158Z,1.20
2019-06-01T19:27:38.129Z,1.20
2019-06-01T19:30:08.915Z,1.40
2019-06-01T19:32:37.978Z,1.50
2019-06-01T19:35:07.637Z,1.53
2019-06-01T19:37:38.946Z,1.43
2019-06-01T19:40:09.217Z,1.60
2019-06-01T19:42:39.646Z,1.67
2019-06-01T19:45:23.539Z,1.47
2019-06-01T19:47:38.826Z,1.97
2019-06-01T19:50:08.618Z,2.10
2019-06-01T19:52:37.651Z,2.60
2019-06-01T19:55:07.135Z,2.33
2019-06-01T19:57:35.897Z,2.30
2019-06-01T20:00:10.015Z,2.30
2019-06-01T20:02:38.854Z,2.27
2019-06-01T20:05:07.805Z,2.30
2019-06-01T20:07:36.489Z,2.40
2019-06-01T20:10:08.270Z,2.37
2019-06-01T20:12:36.978Z,3.07
2019-06-01T20:15:06.753Z,2.53
2019-06-01T20:17:35.806Z,2.73
2019-06-01T20:20:07.164Z,2.70
2019-06-01T20:22:35.807Z,2.87
2019-06-01T20:25:08.205Z,3.67
2019-06-01T20:27:36.973Z,3.30
2019-06-01T20:30:09.082Z,3.03
2019-06-01T20:32:38.353Z,2.70
2019-06-01T20:35:08.166Z,2.27
2019-06-01T20:37:36.830Z,2.43
2019-06-01T20:40:07.121Z,2.30
2019-06-01T20:42:35.921Z,2.27
2019-06-01T20:45:07.276Z,2.40
2019-06-01T20:47:35.951Z,2.20
2019-06-01T20:50:10.341Z,2.00
2019-06-01T20:52:38.987Z,2.23
2019-06-01T20:55:08.434Z,1.90
2019-06-01T20:57:37.361Z,2.33
2019-06-01T21:00:10.175Z,2.30
2019-06-01T21:02:38.908Z,2.30
2019-06-01T21:05:09.027Z,2.33
2019-06-01T21:07:37.738Z,2.70
2019-06-01T21:10:06.998Z,2.03
2019-06-01T21:12:44.748Z,1.87
2019-06-01T21:15:07.070Z,2.13
2019-06-01T21:17:35.759Z,2.30
2019-06-01T21:20:09.146Z,2.30
2019-06-01T21:22:38.220Z,2.17
2019-06-01T21:25:07.516Z,2.10
2019-06-01T21:27:36.577Z,2.30
2019-06-01T21:30:08.428Z,2.30
2019-06-01T21:32:37.284Z,2.43
2019-06-01T21:35:06.660Z,2.40
2019-06-01T21:37:35.935Z,2.43
2019-06-01T21:40:07.869Z,2.40
2019-06-01T21:42:38.556Z,2.13
2019-06-01T21:45:07.413Z,2.30
2019-06-01T21:47:37.122Z,2.30
2019-06-01T21:50:07.141Z,2.50
2019-06-01T21:52:35.819Z,2.50
2019-06-01T21:55:06.510Z,2.60
2019-06-01T21:57:35.218Z,2.50
2019-06-01T22:00:06.842Z,2.60
2019-06-01T22:02:35.840Z,2.43
2019-06-01T22:05:07.571Z,2.47
2019-06-01T22:07:36.256Z,2.50
2019-06-01T22:10:06.149Z,2.40
2019-06-01T22:12:34.862Z,2.37
2019-06-01T22:15:03.746Z,2.33
2019-06-01T22:17:32.440Z,2.57
2019-06-01T22:20:01.350Z,2.80
2019-06-01T22:22:30.030Z,2.77
2019-06-01T22:24:58.746Z,3.07
2019-06-01T22:27:28.418Z,3.40
2019-06-01T22:29:57.419Z,3.33
2019-06-01T22:32:29.566Z,3.10
2019-06-01T22:34:57.115Z,3.00
2019-06-01T22:37:25.843Z,3.20
2019-06-01T22:39:54.559Z,2.87
2019-06-01T22:42:24.295Z,3.23
2019-06-01T22:44:53.127Z,3.13
2019-06-01T22:47:22.505Z,2.80
2019-06-01T22:49:51.281Z,3.63
2019-06-01T22:52:20.946Z,4.40
2019-06-01T23:53:57.569Z,4.20
2019-06-01T23:56:26.275Z,4.13
2019-06-01T23:58:54.958Z,4.27
